sensor_id;sensor_type;location;lat;lon;timestamp;temperature;humidity
9998;DHT22;5038;53.064;8.624;2024-01-30T00:01:37;5.90;99.90
9998;DHT22;5038;53.064;8.624;2024-01-30T00:04:06;5.90;99.90
9998;DHT22;5038;53.064;8.624;2024-01-30T00:06:34;5.90;99.90
9998;DHT22;5038;53.064;8.624;2024-01-30T00:09:02;5.80;99.90
9998;DHT22;5038;53.064;8.624;2024-01-30T00:11:32;5.80;99.90
9998;DHT22;5038;53.064;8.624;2024-01-30T00:14:00;5.80;99.90
9998;DHT22;5038;53.064;8.624;2024-01-30T00:16:28;5.80;99.90
9998;DHT22;5038;53.064;8.624;2024-01-30T00:18:58;5.80;99.90
9998;DHT22;5038;53.064;8.624;2024-01-30T00:21:26;5.70;99.90
9998;DHT22;5038;53.064;8.624;2024-01-30T00:23:54;5.70;99.90
9998;DHT22;5038;53.064;8.624;2024-01-30T00:26:23;5.70;99.90
9998;DHT22;5038;53.064;8.624;2024-01-30T00:28:51;5.70;99.90
9998;DHT22;5038;53.064;8.624;2024-01-30T00:31:19;5.60;99.90
9998;DHT22;5038;53.064;8.624;2024-01-30T00:33:47;5.60;99.90
9998;DHT22;5038;53.064;8.624;2024-01-30T00:36:17;5.60;99.90
9998;DHT22;5038;53.064;8.624;2024-01-30T00:38:46;5.60;99.90
9998;DHT22;5038;53.064;8.624;2024-01-30T00:41:14;5.60;99.90
9998;DHT22;5038;53.064;8.624;2024-01-30T00:43:45;5.50;99.90
9998;DHT22;5038;53.064;8.624;2024-01-30T00:46:13;5.50;99.90
9998;DHT22;5038;53.064;8.624;2024-01-30T00:48:41;5.50;99.90
9998;DHT22;5038;53.064;8.624;2024-01-30T00:51:10;5.50;99.90
9998;DHT22;5038;53.064;8.624;2024-01-30T00:53:39;5.50;99.90
9998;DHT22;5038;53.064;8.624;2024-01-30T00:56:08;5.40;99.90
9998;DHT22;5038;53.064;8.624;2024-01-30T00:58:36;5.40;99.90
9998;DHT22;5038;53.064;8.624;2024-01-30T01:01:05;5.40;99.90
9998;DHT22;5038;53.064;8.624;2024-01-30T01:03:34;5.40;99.90
9998;DHT22;5038;53.064;8.624;2024-01-30T01:06:03;5.40;99.90
9998;DHT22;5038;53.064;8.624;2024-01-30T01:08:31;5.30;99.90
9998;DHT22;5038;53.064;8.624;2024-01-30T01:11:01;5.30;99.90
9998;DHT22;5038;53.064;8.624;2024-01-30T01:13:30;5.40;99.90
9998;DHT22;5038;53.064;8.624;2024-01-30T01:15:58;5.40;99.90
9998;DHT22;5038;53.064;8.624;2024-01-30T01:18:26;5.30;99.90
9998;DHT22;5038;53.064;8.624;2024-01-30T01:20:55;5.30;99.90
9998;DHT22;5038;53.064;8.624;2024-01-30T01:23:23;5.30;99.90
9998;DHT22;5038;53.064;8.624;2024-01-30T01:25:51;5.30;99.90
9998;DHT22;5038;53.064;8.624;2024-01-30T01:28:21;5.30;99.90
9998;DHT22;5038;53.064;8.624;2024-01-30T01:30:49;5.30;99.90
9998;DHT22;5038;53.064;8.624;2024-01-30T01:33:18;5.30;99.90
9998;DHT22;5038;53.064;8.624;2024-01-30T01:35:46;5.30;99.90
9998;DHT22;5038;53.064;8.624;2024-01-30T01:38:15;5.30;99.90
9998;DHT22;5038;53.064;8.624;2024-01-30T01:40:43;5.30;99.90
9998;DHT22;5038;53.064;8.624;2024-01-30T01:43:11;5.30;99.90
9998;DHT22;5038;53.064;8.624;2024-01-30T01:45:41;5.30;99.90
9998;DHT22;5038;53.064;8.624;2024-01-30T01:48:09;5.30;99.90
9998;DHT22;5038;53.064;8.624;2024-01-30T01:50:38;5.30;99.90
9998;DHT22;5038;53.064;8.624;2024-01-30T01:53:08;5.30;99.90
9998;DHT22;5038;53.064;8.624;2024-01-30T01:55:37;5.30;99.90
9998;DHT22;5038;53.064;8.624;2024-01-30T01:58:05;5.20;99.90
9998;DHT22;5038;53.064;8.624;2024-01-30T02:00:36;5.20;99.90
9998;DHT22;5038;53.064;8.624;2024-01-30T02:03:10;5.20;99.90
9998;DHT22;5038;53.064;8.624;2024-01-30T02:05:40;5.20;99.90
9998;DHT22;5038;53.064;8.624;2024-01-30T02:08:09;5.20;99.90
9998;DHT22;5038;53.064;8.624;2024-01-30T02:10:37;5.20;99.90
9998;DHT22;5038;53.064;8.624;2024-01-30T02:13:06;5.20;99.90
9998;DHT22;5038;53.064;8.624;2024-01-30T02:15:34;5.10;99.90
9998;DHT22;5038;53.064;8.624;2024-01-30T02:18:02;5.10;99.90
9998;DHT22;5038;53.064;8.624;2024-01-30T02:20:35;5.10;99.90
9998;DHT22;5038;53.064;8.624;2024-01-30T02:23:05;5.10;99.90
9998;DHT22;5038;53.064;8.624;2024-01-30T02:25:40;5.00;99.90
9998;DHT22;5038;53.064;8.624;2024-01-30T02:28:11;5.00;99.90
9998;DHT22;5038;53.064;8.624;2024-01-30T02:30:40;5.00;99.90
9998;DHT22;5038;53.064;8.624;2024-01-30T02:33:08;4.90;99.90
9998;DHT22;5038;53.064;8.624;2024-01-30T02:35:36;4.90;99.90
9998;DHT22;5038;53.064;8.624;2024-01-30T02:38:06;4.90;99.90
9998;DHT22;5038;53.064;8.624;2024-01-30T02:40:34;4.90;99.90
9998;DHT22;5038;53.064;8.624;2024-01-30T02:43:03;4.80;99.90
9998;DHT22;5038;53.064;8.624;2024-01-30T02:45:31;4.80;99.90
9998;DHT22;5038;53.064;8.624;2024-01-30T02:47:59;4.80;99.90
9998;DHT22;5038;53.064;8.624;2024-01-30T02:50:26;4.80;99.90
9998;DHT22;5038;53.064;8.624;2024-01-30T02:52:55;4.80;99.90
9998;DHT22;5038;53.064;8.624;2024-01-30T02:55:24;4.70;99.90
9998;DHT22;5038;53.064;8.624;2024-01-30T02:57:53;4.70;99.90
9998;DHT22;5038;53.064;8.624;2024-01-30T03:00:21;4.70;99.90
9998;DHT22;5038;53.064;8.624;2024-01-30T03:02:49;4.70;99.90
9998;DHT22;5038;53.064;8.624;2024-01-30T03:05:17;4.60;99.90
9998;DHT22;5038;53.064;8.624;2024-01-30T03:07:46;4.60;99.90
9998;DHT22;5038;53.064;8.624;2024-01-30T03:10:14;4.60;99.90
9998;DHT22;5038;53.064;8.624;2024-01-30T03:12:44;4.60;99.90
9998;DHT22;5038;53.064;8.624;2024-01-30T03:15:12;4.50;99.90
9998;DHT22;5038;53.064;8.624;2024-01-30T03:17:41;4.50;99.90
9998;DHT22;5038;53.064;8.624;2024-01-30T03:20:10;4.50;99.90
9998;DHT22;5038;53.064;8.624;2024-01-30T03:22:38;4.50;99.90
9998;DHT22;5038;53.064;8.624;2024-01-30T03:25:07;4.40;99.90
9998;DHT22;5038;53.064;8.624;2024-01-30T03:27:35;4.40;99.90
9998;DHT22;5038;53.064;8.624;2024-01-30T03:30:07;4.40;99.90
9998;DHT22;5038;53.064;8.624;2024-01-30T03:32:35;4.40;99.90
9998;DHT22;5038;53.064;8.624;2024-01-30T03:35:04;4.40;99.90
9998;DHT22;5038;53.064;8.624;2024-01-30T03:37:33;4.40;99.90
9998;DHT22;5038;53.064;8.624;2024-01-30T03:40:01;4.40;99.90
9998;DHT22;5038;53.064;8.624;2024-01-30T03:42:30;4.40;99.90
9998;DHT22;5038;53.064;8.624;2024-01-30T03:44:58;4.40;99.90
9998;DHT22;5038;53.064;8.624;2024-01-30T03:47:28;4.40;99.90
9998;DHT22;5038;53.064;8.624;2024-01-30T03:49:56;4.40;99.90
9998;DHT22;5038;53.064;8.624;2024-01-30T03:52:24;4.40;99.90
9998;DHT22;5038;53.064;8.624;2024-01-30T03:54:53;4.40;99.90
9998;DHT22;5038;53.064;8.624;2024-01-30T03:57:21;4.40;99.90
9998;DHT22;5038;53.064;8.624;2024-01-30T03:59:50;4.40;99.90
9998;DHT22;5038;53.064;8.624;2024-01-30T04:02:18;4.40;99.90
9998;DHT22;5038;53.064;8.624;2024-01-30T04:04:48;4.40;99.90
9998;DHT22;5038;53.064;8.624;2024-01-30T04:07:16;4.40;99.90
9998;DHT22;5038;53.064;8.624;2024-01-30T04:09:47;4.50;99.90
9998;DHT22;5038;53.064;8.624;2024-01-30T04:12:15;4.50;99.90
9998;DHT22;5038;53.064;8.624;2024-01-30T04:14:43;4.50;99.90
9998;DHT22;5038;53.064;8.624;2024-01-30T04:17:11;4.50;99.90
9998;DHT22;5038;53.064;8.624;2024-01-30T04:19:41;4.50;99.90
9998;DHT22;5038;53.064;8.624;2024-01-30T04:22:11;4.50;99.90
9998;DHT22;5038;53.064;8.624;2024-01-30T04:24:39;4.50;99.90
9998;DHT22;5038;53.064;8.624;2024-01-30T04:27:07;4.50;99.90
9998;DHT22;5038;53.064;8.624;2024-01-30T04:29:35;4.60;99.90
9998;DHT22;5038;53.064;8.624;2024-01-30T04:32:04;4.60;99.90
9998;DHT22;5038;53.064;8.624;2024-01-30T04:34:32;4.60;99.90
9998;DHT22;5038;53.064;8.624;2024-01-30T04:37:01;4.60;99.90
9998;DHT22;5038;53.064;8.624;2024-01-30T04:39:30;4.60;99.90
9998;DHT22;5038;53.064;8.624;2024-01-30T04:42:00;4.60;99.90
9998;DHT22;5038;53.064;8.624;2024-01-30T04:44:30;4.70;99.90
9998;DHT22;5038;53.064;8.624;2024-01-30T04:46:58;4.60;99.90
9998;DHT22;5038;53.064;8.624;2024-01-30T04:49:28;4.70;99.90
9998;DHT22;5038;53.064;8.624;2024-01-30T04:51:57;4.70;99.90
9998;DHT22;5038;53.064;8.624;2024-01-30T04:54:25;4.70;99.90
9998;DHT22;5038;53.064;8.624;2024-01-30T04:56:55;4.70;99.90
9998;DHT22;5038;53.064;8.624;2024-01-30T04:59:23;4.70;99.90
9998;DHT22;5038;53.064;8.624;2024-01-30T05:01:51;4.70;99.90
9998;DHT22;5038;53.064;8.624;2024-01-30T05:04:20;4.70;99.90
9998;DHT22;5038;53.064;8.624;2024-01-30T05:06:49;4.70;99.90
9998;DHT22;5038;53.064;8.624;2024-01-30T05:09:17;4.70;99.90
9998;DHT22;5038;53.064;8.624;2024-01-30T05:11:45;4.70;99.90
9998;DHT22;5038;53.064;8.624;2024-01-30T05:14:15;4.70;99.90
9998;DHT22;5038;53.064;8.624;2024-01-30T05:16:43;4.80;99.90
9998;DHT22;5038;53.064;8.624;2024-01-30T05:19:13;4.80;99.90
9998;DHT22;5038;53.064;8.624;2024-01-30T05:21:42;4.80;99.90
9998;DHT22;5038;53.064;8.624;2024-01-30T05:24:10;4.80;99.90
9998;DHT22;5038;53.064;8.624;2024-01-30T05:26:38;4.80;99.90
9998;DHT22;5038;53.064;8.624;2024-01-30T05:29:07;4.80;99.90
9998;DHT22;5038;53.064;8.624;2024-01-30T05:31:37;4.80;99.90
9998;DHT22;5038;53.064;8.624;2024-01-30T05:34:05;4.80;99.90
9998;DHT22;5038;53.064;8.624;2024-01-30T05:36:34;4.80;99.90
9998;DHT22;5038;53.064;8.624;2024-01-30T05:39:02;4.80;99.90
9998;DHT22;5038;53.064;8.624;2024-01-30T05:41:34;4.70;99.90
9998;DHT22;5038;53.064;8.624;2024-01-30T05:44:03;4.80;99.90
9998;DHT22;5038;53.064;8.624;2024-01-30T05:46:31;4.70;99.90
9998;DHT22;5038;53.064;8.624;2024-01-30T05:49:01;4.80;99.90
9998;DHT22;5038;53.064;8.624;2024-01-30T05:51:29;4.70;99.90
9998;DHT22;5038;53.064;8.624;2024-01-30T05:53:58;4.70;99.90
9998;DHT22;5038;53.064;8.624;2024-01-30T05:56:26;4.70;99.90
9998;DHT22;5038;53.064;8.624;2024-01-30T05:58:55;4.70;99.90
9998;DHT22;5038;53.064;8.624;2024-01-30T06:01:23;4.70;99.90
9998;DHT22;5038;53.064;8.624;2024-01-30T06:03:51;4.70;99.90
9998;DHT22;5038;53.064;8.624;2024-01-30T06:06:21;4.70;99.90
9998;DHT22;5038;53.064;8.624;2024-01-30T06:08:49;4.80;99.90
9998;DHT22;5038;53.064;8.624;2024-01-30T06:11:18;4.70;99.90
9998;DHT22;5038;53.064;8.624;2024-01-30T06:13:46;4.80;99.90
9998;DHT22;5038;53.064;8.624;2024-01-30T06:16:14;4.70;99.90
9998;DHT22;5038;53.064;8.624;2024-01-30T06:18:43;4.80;99.90
9998;DHT22;5038;53.064;8.624;2024-01-30T06:21:11;4.80;99.90
9998;DHT22;5038;53.064;8.624;2024-01-30T06:23:40;4.80;99.90
9998;DHT22;5038;53.064;8.624;2024-01-30T06:26:09;4.80;99.90
9998;DHT22;5038;53.064;8.624;2024-01-30T06:28:37;4.80;99.90
9998;DHT22;5038;53.064;8.624;2024-01-30T06:31:05;4.80;99.90
9998;DHT22;5038;53.064;8.624;2024-01-30T06:33:34;4.80;99.90
9998;DHT22;5038;53.064;8.624;2024-01-30T06:36:02;4.80;99.90
9998;DHT22;5038;53.064;8.624;2024-01-30T06:38:30;4.80;99.90
9998;DHT22;5038;53.064;8.624;2024-01-30T06:41:00;4.80;99.90
9998;DHT22;5038;53.064;8.624;2024-01-30T06:43:28;4.80;99.90
9998;DHT22;5038;53.064;8.624;2024-01-30T06:45:56;4.80;99.90
9998;DHT22;5038;53.064;8.624;2024-01-30T06:48:25;4.90;99.90
9998;DHT22;5038;53.064;8.624;2024-01-30T06:50:53;4.90;99.90
9998;DHT22;5038;53.064;8.624;2024-01-30T06:53:21;4.90;99.90
9998;DHT22;5038;53.064;8.624;2024-01-30T06:55:51;4.90;99.90
9998;DHT22;5038;53.064;8.624;2024-01-30T06:58:21;4.90;99.90
9998;DHT22;5038;53.064;8.624;2024-01-30T07:00:49;4.90;99.90
9998;DHT22;5038;53.064;8.624;2024-01-30T07:03:17;4.90;99.90
9998;DHT22;5038;53.064;8.624;2024-01-30T07:05:45;4.90;99.90
9998;DHT22;5038;53.064;8.624;2024-01-30T07:08:14;4.90;99.90
9998;DHT22;5038;53.064;8.624;2024-01-30T07:10:44;4.90;99.90
9998;DHT22;5038;53.064;8.624;2024-01-30T07:13:12;4.90;99.90
9998;DHT22;5038;53.064;8.624;2024-01-30T07:15:44;4.90;99.90
9998;DHT22;5038;53.064;8.624;2024-01-30T07:18:13;4.90;99.90
9998;DHT22;5038;53.064;8.624;2024-01-30T07:20:41;5.00;99.90
9998;DHT22;5038;53.064;8.624;2024-01-30T07:23:13;5.00;99.90
9998;DHT22;5038;53.064;8.624;2024-01-30T07:25:43;5.00;99.90
9998;DHT22;5038;53.064;8.624;2024-01-30T07:28:15;5.00;99.90
9998;DHT22;5038;53.064;8.624;2024-01-30T07:30:46;5.00;99.90
9998;DHT22;5038;53.064;8.624;2024-01-30T07:33:16;5.00;99.90
9998;DHT22;5038;53.064;8.624;2024-01-30T07:35:45;5.00;99.90
9998;DHT22;5038;53.064;8.624;2024-01-30T07:38:13;5.00;99.90
9998;DHT22;5038;53.064;8.624;2024-01-30T07:40:42;5.10;99.90
9998;DHT22;5038;53.064;8.624;2024-01-30T07:43:10;5.10;99.90
9998;DHT22;5038;53.064;8.624;2024-01-30T07:45:38;5.10;99.90
9998;DHT22;5038;53.064;8.624;2024-01-30T07:48:08;5.10;99.90
9998;DHT22;5038;53.064;8.624;2024-01-30T07:50:36;5.20;99.90
9998;DHT22;5038;53.064;8.624;2024-01-30T07:53:05;5.20;99.90
9998;DHT22;5038;53.064;8.624;2024-01-30T07:55:33;5.20;99.90
9998;DHT22;5038;53.064;8.624;2024-01-30T07:58:01;5.20;99.90
9998;DHT22;5038;53.064;8.624;2024-01-30T08:00:31;5.30;99.90
9998;DHT22;5038;53.064;8.624;2024-01-30T08:03:00;5.30;99.90
9998;DHT22;5038;53.064;8.624;2024-01-30T08:05:29;5.30;99.90
9998;DHT22;5038;53.064;8.624;2024-01-30T08:07:57;5.40;99.90
9998;DHT22;5038;53.064;8.624;2024-01-30T08:10:26;5.40;99.90
9998;DHT22;5038;53.064;8.624;2024-01-30T08:12:54;5.50;99.90
9998;DHT22;5038;53.064;8.624;2024-01-30T08:15:22;5.50;99.90
9998;DHT22;5038;53.064;8.624;2024-01-30T08:17:51;5.60;99.90
9998;DHT22;5038;53.064;8.624;2024-01-30T08:20:22;5.60;99.90
9998;DHT22;5038;53.064;8.624;2024-01-30T08:22:52;5.70;99.90
9998;DHT22;5038;53.064;8.624;2024-01-30T08:25:21;5.70;99.90
9998;DHT22;5038;53.064;8.624;2024-01-30T08:27:49;5.80;99.90
9998;DHT22;5038;53.064;8.624;2024-01-30T08:30:18;5.80;99.90
9998;DHT22;5038;53.064;8.624;2024-01-30T08:32:47;5.90;99.90
9998;DHT22;5038;53.064;8.624;2024-01-30T08:35:15;5.90;99.90
9998;DHT22;5038;53.064;8.624;2024-01-30T08:37:44;6.00;99.90
9998;DHT22;5038;53.064;8.624;2024-01-30T08:40:13;6.00;99.90
9998;DHT22;5038;53.064;8.624;2024-01-30T08:42:42;6.10;99.90
9998;DHT22;5038;53.064;8.624;2024-01-30T08:45:10;6.10;99.90
9998;DHT22;5038;53.064;8.624;2024-01-30T08:47:38;6.20;99.90
9998;DHT22;5038;53.064;8.624;2024-01-30T08:50:08;6.20;99.90
9998;DHT22;5038;53.064;8.624;2024-01-30T08:52:38;6.30;99.90
9998;DHT22;5038;53.064;8.624;2024-01-30T08:55:07;6.30;99.90
9998;DHT22;5038;53.064;8.624;2024-01-30T08:57:36;6.30;99.90
9998;DHT22;5038;53.064;8.624;2024-01-30T09:00:06;6.40;99.90
9998;DHT22;5038;53.064;8.624;2024-01-30T09:02:36;6.40;99.90
9998;DHT22;5038;53.064;8.624;2024-01-30T09:05:04;6.50;99.90
9998;DHT22;5038;53.064;8.624;2024-01-30T09:07:33;6.50;99.90
9998;DHT22;5038;53.064;8.624;2024-01-30T09:10:01;6.60;99.90
9998;DHT22;5038;53.064;8.624;2024-01-30T09:12:29;6.60;99.90
9998;DHT22;5038;53.064;8.624;2024-01-30T09:14:59;6.70;99.90
9998;DHT22;5038;53.064;8.624;2024-01-30T09:17:27;6.70;99.90
9998;DHT22;5038;53.064;8.624;2024-01-30T09:19:55;6.80;99.90
9998;DHT22;5038;53.064;8.624;2024-01-30T09:22:24;6.80;99.90
9998;DHT22;5038;53.064;8.624;2024-01-30T09:24:52;6.80;99.90
9998;DHT22;5038;53.064;8.624;2024-01-30T09:27:20;6.90;99.90
9998;DHT22;5038;53.064;8.624;2024-01-30T09:29:48;7.00;99.90
9998;DHT22;5038;53.064;8.624;2024-01-30T09:32:18;7.00;99.90
9998;DHT22;5038;53.064;8.624;2024-01-30T09:34:46;7.00;99.90
9998;DHT22;5038;53.064;8.624;2024-01-30T09:37:15;7.10;99.90
9998;DHT22;5038;53.064;8.624;2024-01-30T09:39:45;7.10;99.90
9998;DHT22;5038;53.064;8.624;2024-01-30T09:42:26;7.20;99.90
9998;DHT22;5038;53.064;8.624;2024-01-30T09:44:56;7.20;99.90
9998;DHT22;5038;53.064;8.624;2024-01-30T09:47:26;7.30;99.90
9998;DHT22;5038;53.064;8.624;2024-01-30T09:49:55;7.30;99.90
9998;DHT22;5038;53.064;8.624;2024-01-30T09:52:25;7.40;99.90
9998;DHT22;5038;53.064;8.624;2024-01-30T09:54:53;7.40;99.90
9998;DHT22;5038;53.064;8.624;2024-01-30T09:57:22;7.50;99.90
9998;DHT22;5038;53.064;8.624;2024-01-30T09:59:50;7.50;99.90
9998;DHT22;5038;53.064;8.624;2024-01-30T10:02:21;7.60;99.90
9998;DHT22;5038;53.064;8.624;2024-01-30T10:04:51;7.60;99.90
9998;DHT22;5038;53.064;8.624;2024-01-30T10:07:20;7.70;99.90
9998;DHT22;5038;53.064;8.624;2024-01-30T10:09:49;7.70;99.90
9998;DHT22;5038;53.064;8.624;2024-01-30T10:12:17;7.70;99.90
9998;DHT22;5038;53.064;8.624;2024-01-30T10:14:45;7.80;99.90
9998;DHT22;5038;53.064;8.624;2024-01-30T10:17:13;7.80;99.90
9998;DHT22;5038;53.064;8.624;2024-01-30T10:19:55;7.90;99.90
9998;DHT22;5038;53.064;8.624;2024-01-30T10:22:24;7.90;99.90
9998;DHT22;5038;53.064;8.624;2024-01-30T10:24:52;8.00;99.90
9998;DHT22;5038;53.064;8.624;2024-01-30T10:27:25;8.10;99.90
9998;DHT22;5038;53.064;8.624;2024-01-30T10:29:53;8.10;99.90
9998;DHT22;5038;53.064;8.624;2024-01-30T10:32:21;8.20;99.90
9998;DHT22;5038;53.064;8.624;2024-01-30T10:34:50;8.20;99.90
9998;DHT22;5038;53.064;8.624;2024-01-30T10:37:21;8.30;99.90
9998;DHT22;5038;53.064;8.624;2024-01-30T10:39:54;8.40;99.90
9998;DHT22;5038;53.064;8.624;2024-01-30T10:42:26;8.50;99.90
9998;DHT22;5038;53.064;8.624;2024-01-30T10:44:59;8.60;99.90
9998;DHT22;5038;53.064;8.624;2024-01-30T10:47:29;8.60;99.90
9998;DHT22;5038;53.064;8.624;2024-01-30T10:49:57;8.70;99.90
9998;DHT22;5038;53.064;8.624;2024-01-30T10:52:29;8.80;99.90
9998;DHT22;5038;53.064;8.624;2024-01-30T10:54:58;8.80;99.90
9998;DHT22;5038;53.064;8.624;2024-01-30T10:57:27;8.90;99.90
9998;DHT22;5038;53.064;8.624;2024-01-30T10:59:58;8.90;99.90
9998;DHT22;5038;53.064;8.624;2024-01-30T11:02:26;9.00;99.90
9998;DHT22;5038;53.064;8.624;2024-01-30T11:04:56;9.00;99.90
9998;DHT22;5038;53.064;8.624;2024-01-30T11:07:28;9.10;99.90
9998;DHT22;5038;53.064;8.624;2024-01-30T11:10:00;9.10;99.90
9998;DHT22;5038;53.064;8.624;2024-01-30T11:12:30;9.20;99.90
9998;DHT22;5038;53.064;8.624;2024-01-30T11:15:04;9.20;99.90
9998;DHT22;5038;53.064;8.624;2024-01-30T11:17:41;9.30;99.90
9998;DHT22;5038;53.064;8.624;2024-01-30T11:20:14;9.30;99.90
9998;DHT22;5038;53.064;8.624;2024-01-30T11:22:44;9.40;99.90
9998;DHT22;5038;53.064;8.624;2024-01-30T11:25:14;9.40;99.90
9998;DHT22;5038;53.064;8.624;2024-01-30T11:27:42;9.40;99.90
9998;DHT22;5038;53.064;8.624;2024-01-30T11:30:20;9.50;99.90
9998;DHT22;5038;53.064;8.624;2024-01-30T11:33:01;9.50;99.90
9998;DHT22;5038;53.064;8.624;2024-01-30T11:35:33;9.60;99.90
9998;DHT22;5038;53.064;8.624;2024-01-30T11:38:03;9.60;99.90
9998;DHT22;5038;53.064;8.624;2024-01-30T11:40:33;9.60;99.90
9998;DHT22;5038;53.064;8.624;2024-01-30T11:46:23;9.70;99.90
9998;DHT22;5038;53.064;8.624;2024-01-30T11:48:53;9.70;99.90
9998;DHT22;5038;53.064;8.624;2024-01-30T11:51:21;9.70;99.90
9998;DHT22;5038;53.064;8.624;2024-01-30T11:53:51;9.80;99.90
9998;DHT22;5038;53.064;8.624;2024-01-30T11:56:19;9.80;99.90
9998;DHT22;5038;53.064;8.624;2024-01-30T11:58:47;9.80;99.90
9998;DHT22;5038;53.064;8.624;2024-01-30T12:01:17;9.90;99.90
9998;DHT22;5038;53.064;8.624;2024-01-30T12:03:49;9.90;99.90
9998;DHT22;5038;53.064;8.624;2024-01-30T12:06:17;9.90;99.90
9998;DHT22;5038;53.064;8.624;2024-01-30T12:08:57;10.00;99.90
9998;DHT22;5038;53.064;8.624;2024-01-30T12:11:26;10.10;99.90
9998;DHT22;5038;53.064;8.624;2024-01-30T12:13:57;10.10;99.90
9998;DHT22;5038;53.064;8.624;2024-01-30T12:16:25;10.10;99.90
9998;DHT22;5038;53.064;8.624;2024-01-30T12:19:03;10.20;99.90
9998;DHT22;5038;53.064;8.624;2024-01-30T12:21:31;10.20;99.90
9998;DHT22;5038;53.064;8.624;2024-01-30T12:24:01;10.30;99.90
9998;DHT22;5038;53.064;8.624;2024-01-30T12:26:29;10.30;99.90
9998;DHT22;5038;53.064;8.624;2024-01-30T12:28:57;10.40;99.90
9998;DHT22;5038;53.064;8.624;2024-01-30T12:31:26;10.40;99.90
9998;DHT22;5038;53.064;8.624;2024-01-30T12:33:55;10.40;99.90
9998;DHT22;5038;53.064;8.624;2024-01-30T12:36:25;10.50;99.90
9998;DHT22;5038;53.064;8.624;2024-01-30T12:38:54;10.50;99.90
9998;DHT22;5038;53.064;8.624;2024-01-30T12:41:23;10.60;99.90
9998;DHT22;5038;53.064;8.624;2024-01-30T12:43:55;10.60;99.90
9998;DHT22;5038;53.064;8.624;2024-01-30T12:46:27;10.60;99.90
9998;DHT22;5038;53.064;8.624;2024-01-30T12:48:56;10.70;99.90
9998;DHT22;5038;53.064;8.624;2024-01-30T12:51:24;10.70;99.90
9998;DHT22;5038;53.064;8.624;2024-01-30T12:53:53;10.80;99.90
9998;DHT22;5038;53.064;8.624;2024-01-30T12:56:21;10.80;99.90
9998;DHT22;5038;53.064;8.624;2024-01-30T12:58:51;10.80;99.90
9998;DHT22;5038;53.064;8.624;2024-01-30T13:01:21;10.90;99.90
9998;DHT22;5038;53.064;8.624;2024-01-30T13:03:50;10.90;99.90
9998;DHT22;5038;53.064;8.624;2024-01-30T13:06:18;10.90;99.90
9998;DHT22;5038;53.064;8.624;2024-01-30T13:08:46;11.00;99.90
9998;DHT22;5038;53.064;8.624;2024-01-30T13:11:15;11.00;99.90
9998;DHT22;5038;53.064;8.624;2024-01-30T13:13:47;11.00;99.90
9998;DHT22;5038;53.064;8.624;2024-01-30T13:16:17;11.00;99.90
9998;DHT22;5038;53.064;8.624;2024-01-30T13:18:45;11.00;99.90
9998;DHT22;5038;53.064;8.624;2024-01-30T13:21:14;11.00;99.90
9998;DHT22;5038;53.064;8.624;2024-01-30T13:23:42;11.10;99.90
9998;DHT22;5038;53.064;8.624;2024-01-30T13:26:11;11.10;99.90
9998;DHT22;5038;53.064;8.624;2024-01-30T13:28:39;11.10;99.90
9998;DHT22;5038;53.064;8.624;2024-01-30T13:31:07;11.10;99.90
9998;DHT22;5038;53.064;8.624;2024-01-30T13:33:37;11.20;99.90
9998;DHT22;5038;53.064;8.624;2024-01-30T13:36:06;11.20;99.90
9998;DHT22;5038;53.064;8.624;2024-01-30T13:38:34;11.20;99.90
9998;DHT22;5038;53.064;8.624;2024-01-30T13:41:03;11.20;99.90
9998;DHT22;5038;53.064;8.624;2024-01-30T13:43:31;11.20;99.90
9998;DHT22;5038;53.064;8.624;2024-01-30T13:46:00;11.30;99.90
9998;DHT22;5038;53.064;8.624;2024-01-30T13:48:28;11.30;99.90
9998;DHT22;5038;53.064;8.624;2024-01-30T13:50:58;11.30;99.90
9998;DHT22;5038;53.064;8.624;2024-01-30T13:53:26;11.30;99.90
9998;DHT22;5038;53.064;8.624;2024-01-30T13:55:55;11.30;99.90
9998;DHT22;5038;53.064;8.624;2024-01-30T13:58:23;11.30;99.90
9998;DHT22;5038;53.064;8.624;2024-01-30T14:00:51;11.40;99.90
9998;DHT22;5038;53.064;8.624;2024-01-30T14:03:20;11.40;99.90
9998;DHT22;5038;53.064;8.624;2024-01-30T14:05:48;11.40;99.90
9998;DHT22;5038;53.064;8.624;2024-01-30T14:08:18;11.40;99.90
9998;DHT22;5038;53.064;8.624;2024-01-30T14:10:48;11.40;99.90
9998;DHT22;5038;53.064;8.624;2024-01-30T14:13:16;11.40;99.90
9998;DHT22;5038;53.064;8.624;2024-01-30T14:15:45;11.40;99.90
9998;DHT22;5038;53.064;8.624;2024-01-30T14:18:13;11.40;99.90
9998;DHT22;5038;53.064;8.624;2024-01-30T14:20:41;11.40;99.90
9998;DHT22;5038;53.064;8.624;2024-01-30T14:23:10;11.40;99.90
9998;DHT22;5038;53.064;8.624;2024-01-30T14:25:39;11.40;99.90
9998;DHT22;5038;53.064;8.624;2024-01-30T14:28:07;11.50;99.90
9998;DHT22;5038;53.064;8.624;2024-01-30T14:30:36;11.50;99.90
9998;DHT22;5038;53.064;8.624;2024-01-30T14:33:05;11.50;99.90
9998;DHT22;5038;53.064;8.624;2024-01-30T14:35:34;11.50;99.90
9998;DHT22;5038;53.064;8.624;2024-01-30T14:38:02;11.60;99.90
9998;DHT22;5038;53.064;8.624;2024-01-30T14:40:31;11.60;99.90
9998;DHT22;5038;53.064;8.624;2024-01-30T14:43:01;11.60;99.90
9998;DHT22;5038;53.064;8.624;2024-01-30T14:45:30;11.60;99.90
9998;DHT22;5038;53.064;8.624;2024-01-30T14:47:59;11.60;99.90
9998;DHT22;5038;53.064;8.624;2024-01-30T14:50:28;11.60;99.90
9998;DHT22;5038;53.064;8.624;2024-01-30T14:52:56;11.60;99.90
9998;DHT22;5038;53.064;8.624;2024-01-30T14:55:25;11.50;99.90
9998;DHT22;5038;53.064;8.624;2024-01-30T14:57:54;11.50;99.90
9998;DHT22;5038;53.064;8.624;2024-01-30T15:00:26;11.50;99.90
9998;DHT22;5038;53.064;8.624;2024-01-30T15:02:54;11.50;99.90
9998;DHT22;5038;53.064;8.624;2024-01-30T15:05:23;11.50;99.90
9998;DHT22;5038;53.064;8.624;2024-01-30T15:07:51;11.50;99.90
9998;DHT22;5038;53.064;8.624;2024-01-30T15:10:21;11.50;99.90
9998;DHT22;5038;53.064;8.624;2024-01-30T15:12:50;11.50;99.90
9998;DHT22;5038;53.064;8.624;2024-01-30T15:15:18;11.50;99.90
9998;DHT22;5038;53.064;8.624;2024-01-30T15:17:48;11.50;99.90
9998;DHT22;5038;53.064;8.624;2024-01-30T15:20:16;11.50;99.90
9998;DHT22;5038;53.064;8.624;2024-01-30T15:22:45;11.50;99.90
9998;DHT22;5038;53.064;8.624;2024-01-30T15:25:14;11.50;99.90
9998;DHT22;5038;53.064;8.624;2024-01-30T15:27:42;11.50;99.90
9998;DHT22;5038;53.064;8.624;2024-01-30T15:30:12;11.50;99.90
9998;DHT22;5038;53.064;8.624;2024-01-30T15:32:40;11.50;99.90
9998;DHT22;5038;53.064;8.624;2024-01-30T15:35:10;11.50;99.90
9998;DHT22;5038;53.064;8.624;2024-01-30T15:37:40;11.50;99.90
9998;DHT22;5038;53.064;8.624;2024-01-30T15:40:08;11.50;99.90
9998;DHT22;5038;53.064;8.624;2024-01-30T15:42:39;11.50;99.90
9998;DHT22;5038;53.064;8.624;2024-01-30T15:45:07;11.40;99.90
9998;DHT22;5038;53.064;8.624;2024-01-30T15:47:35;11.40;99.90
9998;DHT22;5038;53.064;8.624;2024-01-30T15:50:05;11.40;99.90
9998;DHT22;5038;53.064;8.624;2024-01-30T15:52:35;11.40;99.90
9998;DHT22;5038;53.064;8.624;2024-01-30T15:55:04;11.40;99.90
9998;DHT22;5038;53.064;8.624;2024-01-30T15:57:32;11.40;99.90
9998;DHT22;5038;53.064;8.624;2024-01-30T16:00:00;11.40;99.90
9998;DHT22;5038;53.064;8.624;2024-01-30T16:02:37;11.40;99.90
9998;DHT22;5038;53.064;8.624;2024-01-30T16:05:06;11.40;99.90
9998;DHT22;5038;53.064;8.624;2024-01-30T16:07:37;11.40;99.90
9998;DHT22;5038;53.064;8.624;2024-01-30T16:10:06;11.40;99.90
9998;DHT22;5038;53.064;8.624;2024-01-30T16:12:35;11.30;99.90
9998;DHT22;5038;53.064;8.624;2024-01-30T16:15:04;11.40;99.90
9998;DHT22;5038;53.064;8.624;2024-01-30T16:17:32;11.40;99.90
9998;DHT22;5038;53.064;8.624;2024-01-30T16:20:03;11.40;99.90
9998;DHT22;5038;53.064;8.624;2024-01-30T16:22:32;11.40;99.90
9998;DHT22;5038;53.064;8.624;2024-01-30T16:25:02;11.40;99.90
9998;DHT22;5038;53.064;8.624;2024-01-30T16:27:31;11.40;99.90
9998;DHT22;5038;53.064;8.624;2024-01-30T16:29:59;11.40;99.90